sensor_id;sensor_type;location;lat;lon;timestamp;temperature;humidity
7648;DHT22;3866;48.020;11.720;2022-08-19T00:01:25;18.00;99.90
7648;DHT22;3866;48.020;11.720;2022-08-19T00:03:52;18.00;99.90
7648;DHT22;3866;48.020;11.720;2022-08-19T00:06:19;18.00;99.90
7648;DHT22;3866;48.020;11.720;2022-08-19T00:08:48;18.00;99.90
7648;DHT22;3866;48.020;11.720;2022-08-19T00:11:17;18.00;99.90
7648;DHT22;3866;48.020;11.720;2022-08-19T00:13:44;18.00;99.90
7648;DHT22;3866;48.020;11.720;2022-08-19T00:16:11;18.00;99.90
7648;DHT22;3866;48.020;11.720;2022-08-19T00:18:38;18.00;99.90
7648;DHT22;3866;48.020;11.720;2022-08-19T00:21:05;18.10;99.90
7648;DHT22;3866;48.020;11.720;2022-08-19T00:23:33;18.10;99.90
7648;DHT22;3866;48.020;11.720;2022-08-19T00:26:03;18.10;99.90
7648;DHT22;3866;48.020;11.720;2022-08-19T00:28:30;18.10;99.90
7648;DHT22;3866;48.020;11.720;2022-08-19T00:30:57;18.10;99.90
7648;DHT22;3866;48.020;11.720;2022-08-19T00:33:24;18.10;99.90
7648;DHT22;3866;48.020;11.720;2022-08-19T00:35:51;18.10;99.90
7648;DHT22;3866;48.020;11.720;2022-08-19T00:38:18;18.10;99.90
7648;DHT22;3866;48.020;11.720;2022-08-19T00:40:48;18.10;99.90
7648;DHT22;3866;48.020;11.720;2022-08-19T00:43:21;18.10;99.90
7648;DHT22;3866;48.020;11.720;2022-08-19T00:45:48;18.10;99.90
7648;DHT22;3866;48.020;11.720;2022-08-19T00:48:15;18.20;99.90
7648;DHT22;3866;48.020;11.720;2022-08-19T00:50:44;18.20;99.90
7648;DHT22;3866;48.020;11.720;2022-08-19T00:53:12;18.20;99.90
7648;DHT22;3866;48.020;11.720;2022-08-19T00:55:41;18.20;99.90
7648;DHT22;3866;48.020;11.720;2022-08-19T00:58:12;18.20;99.90
7648;DHT22;3866;48.020;11.720;2022-08-19T01:00:41;18.10;99.90
7648;DHT22;3866;48.020;11.720;2022-08-19T01:03:10;18.10;99.90
7648;DHT22;3866;48.020;11.720;2022-08-19T01:05:40;18.00;99.90
7648;DHT22;3866;48.020;11.720;2022-08-19T01:08:07;18.00;99.90
7648;DHT22;3866;48.020;11.720;2022-08-19T01:10:39;18.00;99.90
7648;DHT22;3866;48.020;11.720;2022-08-19T01:13:07;18.00;99.90
7648;DHT22;3866;48.020;11.720;2022-08-19T01:15:39;17.90;99.90
7648;DHT22;3866;48.020;11.720;2022-08-19T01:18:12;17.90;99.90
7648;DHT22;3866;48.020;11.720;2022-08-19T01:20:40;17.90;99.90
7648;DHT22;3866;48.020;11.720;2022-08-19T01:23:10;17.90;99.90
7648;DHT22;3866;48.020;11.720;2022-08-19T01:25:42;17.90;99.90
7648;DHT22;3866;48.020;11.720;2022-08-19T01:28:15;17.90;99.90
7648;DHT22;3866;48.020;11.720;2022-08-19T01:30:44;18.00;99.90
7648;DHT22;3866;48.020;11.720;2022-08-19T01:33:11;18.00;99.90
7648;DHT22;3866;48.020;11.720;2022-08-19T01:35:39;18.00;99.90
7648;DHT22;3866;48.020;11.720;2022-08-19T01:38:10;17.90;99.90
7648;DHT22;3866;48.020;11.720;2022-08-19T01:40:39;18.00;99.90
7648;DHT22;3866;48.020;11.720;2022-08-19T01:43:07;18.00;99.90
7648;DHT22;3866;48.020;11.720;2022-08-19T01:45:34;18.00;99.90
7648;DHT22;3866;48.020;11.720;2022-08-19T01:48:02;18.00;99.90
7648;DHT22;3866;48.020;11.720;2022-08-19T01:50:30;18.00;99.90
7648;DHT22;3866;48.020;11.720;2022-08-19T01:52:58;18.00;99.90
7648;DHT22;3866;48.020;11.720;2022-08-19T01:55:27;18.00;99.90
7648;DHT22;3866;48.020;11.720;2022-08-19T01:57:56;18.00;99.90
7648;DHT22;3866;48.020;11.720;2022-08-19T02:00:28;18.00;99.90
7648;DHT22;3866;48.020;11.720;2022-08-19T02:02:56;18.00;99.90
7648;DHT22;3866;48.020;11.720;2022-08-19T02:05:24;18.00;99.90
7648;DHT22;3866;48.020;11.720;2022-08-19T02:07:50;17.90;99.90
7648;DHT22;3866;48.020;11.720;2022-08-19T02:10:20;17.90;99.90
7648;DHT22;3866;48.020;11.720;2022-08-19T02:12:49;17.90;99.90
7648;DHT22;3866;48.020;11.720;2022-08-19T02:15:16;17.90;99.90
7648;DHT22;3866;48.020;11.720;2022-08-19T02:17:44;17.90;99.90
7648;DHT22;3866;48.020;11.720;2022-08-19T02:20:12;17.90;99.90
7648;DHT22;3866;48.020;11.720;2022-08-19T02:22:39;18.00;99.90
7648;DHT22;3866;48.020;11.720;2022-08-19T02:25:08;17.90;99.90
7648;DHT22;3866;48.020;11.720;2022-08-19T02:27:36;18.00;99.90
7648;DHT22;3866;48.020;11.720;2022-08-19T02:30:06;17.90;99.90
7648;DHT22;3866;48.020;11.720;2022-08-19T02:32:33;17.90;99.90
7648;DHT22;3866;48.020;11.720;2022-08-19T02:35:00;17.90;99.90
7648;DHT22;3866;48.020;11.720;2022-08-19T02:37:27;17.90;99.90
7648;DHT22;3866;48.020;11.720;2022-08-19T02:40:11;17.80;99.90
7648;DHT22;3866;48.020;11.720;2022-08-19T02:42:38;17.80;99.90
7648;DHT22;3866;48.020;11.720;2022-08-19T02:45:08;17.80;99.90
7648;DHT22;3866;48.020;11.720;2022-08-19T02:47:35;17.80;99.90
7648;DHT22;3866;48.020;11.720;2022-08-19T02:50:03;17.80;99.90
7648;DHT22;3866;48.020;11.720;2022-08-19T02:52:31;17.70;99.90
7648;DHT22;3866;48.020;11.720;2022-08-19T02:54:58;17.70;99.90
7648;DHT22;3866;48.020;11.720;2022-08-19T02:57:26;17.80;99.90
7648;DHT22;3866;48.020;11.720;2022-08-19T02:59:53;17.70;99.90
7648;DHT22;3866;48.020;11.720;2022-08-19T03:02:22;17.70;99.90
7648;DHT22;3866;48.020;11.720;2022-08-19T03:04:49;17.60;99.90
7648;DHT22;3866;48.020;11.720;2022-08-19T03:07:17;17.60;99.90
7648;DHT22;3866;48.020;11.720;2022-08-19T03:09:44;17.60;99.90
7648;DHT22;3866;48.020;11.720;2022-08-19T03:12:11;17.50;99.90
7648;DHT22;3866;48.020;11.720;2022-08-19T03:14:38;17.50;99.90
7648;DHT22;3866;48.020;11.720;2022-08-19T03:17:06;17.40;99.90
7648;DHT22;3866;48.020;11.720;2022-08-19T03:19:34;17.40;99.90
7648;DHT22;3866;48.020;11.720;2022-08-19T03:22:02;17.40;99.90
7648;DHT22;3866;48.020;11.720;2022-08-19T03:24:30;17.40;99.90
7648;DHT22;3866;48.020;11.720;2022-08-19T03:26:57;17.40;99.90
7648;DHT22;3866;48.020;11.720;2022-08-19T03:29:25;17.50;99.90
7648;DHT22;3866;48.020;11.720;2022-08-19T03:31:52;17.40;99.90
7648;DHT22;3866;48.020;11.720;2022-08-19T03:34:22;17.40;99.90
7648;DHT22;3866;48.020;11.720;2022-08-19T03:36:53;17.40;99.90
7648;DHT22;3866;48.020;11.720;2022-08-19T03:39:20;17.40;99.90
7648;DHT22;3866;48.020;11.720;2022-08-19T03:41:49;17.40;99.90
7648;DHT22;3866;48.020;11.720;2022-08-19T03:44:18;17.50;99.90
7648;DHT22;3866;48.020;11.720;2022-08-19T03:46:48;17.50;99.90
7648;DHT22;3866;48.020;11.720;2022-08-19T03:49:16;17.40;99.90
7648;DHT22;3866;48.020;11.720;2022-08-19T03:51:43;17.40;99.90
7648;DHT22;3866;48.020;11.720;2022-08-19T03:54:13;17.50;99.90
7648;DHT22;3866;48.020;11.720;2022-08-19T03:56:41;17.50;99.90
7648;DHT22;3866;48.020;11.720;2022-08-19T03:59:23;17.50;99.90
7648;DHT22;3866;48.020;11.720;2022-08-19T04:01:51;17.50;99.90
7648;DHT22;3866;48.020;11.720;2022-08-19T04:04:18;17.60;99.90
7648;DHT22;3866;48.020;11.720;2022-08-19T04:06:45;17.60;99.90
7648;DHT22;3866;48.020;11.720;2022-08-19T04:09:14;17.60;99.90
7648;DHT22;3866;48.020;11.720;2022-08-19T04:11:45;17.60;99.90
7648;DHT22;3866;48.020;11.720;2022-08-19T04:14:14;17.60;99.90
7648;DHT22;3866;48.020;11.720;2022-08-19T04:16:43;17.50;99.90
7648;DHT22;3866;48.020;11.720;2022-08-19T04:19:11;17.50;99.90
7648;DHT22;3866;48.020;11.720;2022-08-19T04:21:38;17.60;99.90
7648;DHT22;3866;48.020;11.720;2022-08-19T04:24:05;17.60;99.90
7648;DHT22;3866;48.020;11.720;2022-08-19T04:26:35;17.60;99.90
7648;DHT22;3866;48.020;11.720;2022-08-19T04:29:07;17.60;99.90
7648;DHT22;3866;48.020;11.720;2022-08-19T04:31:34;17.60;99.90
7648;DHT22;3866;48.020;11.720;2022-08-19T04:34:04;17.60;99.90
7648;DHT22;3866;48.020;11.720;2022-08-19T04:36:32;17.60;99.90
7648;DHT22;3866;48.020;11.720;2022-08-19T04:39:02;17.70;99.90
7648;DHT22;3866;48.020;11.720;2022-08-19T04:41:29;17.60;99.90
7648;DHT22;3866;48.020;11.720;2022-08-19T04:44:15;17.50;99.90
7648;DHT22;3866;48.020;11.720;2022-08-19T04:46:44;17.50;99.90
7648;DHT22;3866;48.020;11.720;2022-08-19T04:49:10;17.60;99.90
7648;DHT22;3866;48.020;11.720;2022-08-19T04:51:40;17.60;99.90
7648;DHT22;3866;48.020;11.720;2022-08-19T04:54:08;17.60;99.90
7648;DHT22;3866;48.020;11.720;2022-08-19T04:56:35;17.60;99.90
7648;DHT22;3866;48.020;11.720;2022-08-19T04:59:02;17.50;99.90
7648;DHT22;3866;48.020;11.720;2022-08-19T05:01:32;17.50;99.90
7648;DHT22;3866;48.020;11.720;2022-08-19T05:04:02;17.60;99.90
7648;DHT22;3866;48.020;11.720;2022-08-19T05:06:30;17.60;99.90
7648;DHT22;3866;48.020;11.720;2022-08-19T05:08:59;17.70;99.90
7648;DHT22;3866;48.020;11.720;2022-08-19T05:11:29;17.60;99.90
7648;DHT22;3866;48.020;11.720;2022-08-19T05:13:57;17.60;99.90
7648;DHT22;3866;48.020;11.720;2022-08-19T05:16:25;17.70;99.90
7648;DHT22;3866;48.020;11.720;2022-08-19T05:18:54;17.60;99.90
7648;DHT22;3866;48.020;11.720;2022-08-19T05:21:40;17.60;99.90
7648;DHT22;3866;48.020;11.720;2022-08-19T05:24:24;17.70;99.90
7648;DHT22;3866;48.020;11.720;2022-08-19T05:26:53;17.70;99.90
7648;DHT22;3866;48.020;11.720;2022-08-19T05:29:24;17.60;99.90
7648;DHT22;3866;48.020;11.720;2022-08-19T05:31:51;17.70;99.90
7648;DHT22;3866;48.020;11.720;2022-08-19T05:34:22;17.60;99.90
7648;DHT22;3866;48.020;11.720;2022-08-19T05:36:53;17.60;99.90
7648;DHT22;3866;48.020;11.720;2022-08-19T05:39:23;17.70;99.90
7648;DHT22;3866;48.020;11.720;2022-08-19T05:41:53;17.70;99.90
7648;DHT22;3866;48.020;11.720;2022-08-19T05:44:23;17.80;99.90
7648;DHT22;3866;48.020;11.720;2022-08-19T05:46:50;17.70;99.90
7648;DHT22;3866;48.020;11.720;2022-08-19T05:49:22;17.70;99.90
7648;DHT22;3866;48.020;11.720;2022-08-19T05:51:49;17.60;99.90
7648;DHT22;3866;48.020;11.720;2022-08-19T05:54:17;17.60;99.90
7648;DHT22;3866;48.020;11.720;2022-08-19T05:56:45;17.60;99.90
7648;DHT22;3866;48.020;11.720;2022-08-19T05:59:14;17.50;99.90
7648;DHT22;3866;48.020;11.720;2022-08-19T06:01:44;17.50;99.90
7648;DHT22;3866;48.020;11.720;2022-08-19T06:04:12;17.40;99.90
7648;DHT22;3866;48.020;11.720;2022-08-19T06:06:41;17.30;99.90
7648;DHT22;3866;48.020;11.720;2022-08-19T06:09:08;17.40;99.90
7648;DHT22;3866;48.020;11.720;2022-08-19T06:11:38;17.30;99.90
7648;DHT22;3866;48.020;11.720;2022-08-19T06:14:08;17.20;99.90
7648;DHT22;3866;48.020;11.720;2022-08-19T06:16:36;17.20;99.90
7648;DHT22;3866;48.020;11.720;2022-08-19T06:19:06;17.20;99.90
7648;DHT22;3866;48.020;11.720;2022-08-19T06:21:35;17.20;99.90
7648;DHT22;3866;48.020;11.720;2022-08-19T06:24:06;17.10;99.90
7648;DHT22;3866;48.020;11.720;2022-08-19T06:26:35;17.00;99.90
7648;DHT22;3866;48.020;11.720;2022-08-19T06:29:04;17.00;99.90
7648;DHT22;3866;48.020;11.720;2022-08-19T06:31:33;17.00;99.90
7648;DHT22;3866;48.020;11.720;2022-08-19T06:34:01;17.00;99.90
7648;DHT22;3866;48.020;11.720;2022-08-19T06:36:31;17.10;99.90
7648;DHT22;3866;48.020;11.720;2022-08-19T06:39:00;17.10;99.90
7648;DHT22;3866;48.020;11.720;2022-08-19T06:41:29;17.10;99.90
7648;DHT22;3866;48.020;11.720;2022-08-19T06:43:57;17.20;99.90
7648;DHT22;3866;48.020;11.720;2022-08-19T06:46:24;17.20;99.90
7648;DHT22;3866;48.020;11.720;2022-08-19T06:48:52;17.20;99.90
7648;DHT22;3866;48.020;11.720;2022-08-19T06:51:21;17.10;99.90
7648;DHT22;3866;48.020;11.720;2022-08-19T06:53:50;17.20;99.90
7648;DHT22;3866;48.020;11.720;2022-08-19T06:56:19;17.20;99.90
7648;DHT22;3866;48.020;11.720;2022-08-19T06:58:48;17.20;99.90
7648;DHT22;3866;48.020;11.720;2022-08-19T07:01:16;17.10;99.90
7648;DHT22;3866;48.020;11.720;2022-08-19T07:03:43;17.20;99.90
7648;DHT22;3866;48.020;11.720;2022-08-19T07:06:14;17.30;99.90
7648;DHT22;3866;48.020;11.720;2022-08-19T07:08:43;17.30;99.90
7648;DHT22;3866;48.020;11.720;2022-08-19T07:11:13;17.40;99.90
7648;DHT22;3866;48.020;11.720;2022-08-19T07:13:41;17.60;99.90
7648;DHT22;3866;48.020;11.720;2022-08-19T07:16:13;17.60;99.90
7648;DHT22;3866;48.020;11.720;2022-08-19T07:18:40;17.80;99.90
7648;DHT22;3866;48.020;11.720;2022-08-19T07:21:09;17.90;99.90
7648;DHT22;3866;48.020;11.720;2022-08-19T07:23:37;17.70;99.90
7648;DHT22;3866;48.020;11.720;2022-08-19T07:26:07;17.80;99.90
7648;DHT22;3866;48.020;11.720;2022-08-19T07:28:34;18.00;99.90
7648;DHT22;3866;48.020;11.720;2022-08-19T07:31:05;17.90;99.90
7648;DHT22;3866;48.020;11.720;2022-08-19T07:33:33;17.80;99.90
7648;DHT22;3866;48.020;11.720;2022-08-19T07:36:03;17.80;99.90
7648;DHT22;3866;48.020;11.720;2022-08-19T07:38:30;18.00;99.90
7648;DHT22;3866;48.020;11.720;2022-08-19T07:40:57;17.90;99.90
7648;DHT22;3866;48.020;11.720;2022-08-19T07:43:24;18.10;99.90
7648;DHT22;3866;48.020;11.720;2022-08-19T07:45:52;18.10;99.90
7648;DHT22;3866;48.020;11.720;2022-08-19T07:48:22;18.40;99.90
7648;DHT22;3866;48.020;11.720;2022-08-19T07:50:52;18.40;99.90
7648;DHT22;3866;48.020;11.720;2022-08-19T07:53:20;18.40;99.90
7648;DHT22;3866;48.020;11.720;2022-08-19T07:55:47;18.30;99.90
7648;DHT22;3866;48.020;11.720;2022-08-19T07:58:16;18.30;99.90
7648;DHT22;3866;48.020;11.720;2022-08-19T08:00:45;18.20;99.90
7648;DHT22;3866;48.020;11.720;2022-08-19T08:03:12;18.10;99.90
7648;DHT22;3866;48.020;11.720;2022-08-19T08:05:40;18.10;99.90
7648;DHT22;3866;48.020;11.720;2022-08-19T08:08:26;18.10;99.90
7648;DHT22;3866;48.020;11.720;2022-08-19T08:11:11;18.10;99.90
7648;DHT22;3866;48.020;11.720;2022-08-19T08:13:38;18.10;99.90
7648;DHT22;3866;48.020;11.720;2022-08-19T08:16:06;18.00;99.90
7648;DHT22;3866;48.020;11.720;2022-08-19T08:18:33;17.90;99.90
7648;DHT22;3866;48.020;11.720;2022-08-19T08:21:07;18.00;99.90
7648;DHT22;3866;48.020;11.720;2022-08-19T08:23:35;17.90;99.90
7648;DHT22;3866;48.020;11.720;2022-08-19T08:26:02;18.00;99.90
7648;DHT22;3866;48.020;11.720;2022-08-19T08:28:30;18.00;99.90
7648;DHT22;3866;48.020;11.720;2022-08-19T08:30:58;18.00;99.90
7648;DHT22;3866;48.020;11.720;2022-08-19T08:33:27;18.00;99.90
7648;DHT22;3866;48.020;11.720;2022-08-19T08:35:55;18.00;99.90
7648;DHT22;3866;48.020;11.720;2022-08-19T08:38:22;18.10;99.90
7648;DHT22;3866;48.020;11.720;2022-08-19T08:40:55;18.00;99.90
7648;DHT22;3866;48.020;11.720;2022-08-19T08:43:34;18.10;99.90
7648;DHT22;3866;48.020;11.720;2022-08-19T08:46:04;18.20;99.90
7648;DHT22;3866;48.020;11.720;2022-08-19T08:48:37;18.10;99.90
7648;DHT22;3866;48.020;11.720;2022-08-19T08:51:09;18.00;99.90
7648;DHT22;3866;48.020;11.720;2022-08-19T08:53:37;18.10;99.90
7648;DHT22;3866;48.020;11.720;2022-08-19T08:56:06;18.20;99.90
7648;DHT22;3866;48.020;11.720;2022-08-19T08:58:47;18.10;99.90
7648;DHT22;3866;48.020;11.720;2022-08-19T09:01:15;18.10;99.90
7648;DHT22;3866;48.020;11.720;2022-08-19T09:03:43;18.00;99.90
7648;DHT22;3866;48.020;11.720;2022-08-19T09:06:14;18.00;99.90
7648;DHT22;3866;48.020;11.720;2022-08-19T09:08:49;18.00;99.90
7648;DHT22;3866;48.020;11.720;2022-08-19T09:11:32;18.00;99.90
7648;DHT22;3866;48.020;11.720;2022-08-19T09:14:10;18.00;99.90
7648;DHT22;3866;48.020;11.720;2022-08-19T09:16:40;18.10;99.90
7648;DHT22;3866;48.020;11.720;2022-08-19T09:19:08;18.20;99.90
7648;DHT22;3866;48.020;11.720;2022-08-19T09:21:36;18.10;99.90
7648;DHT22;3866;48.020;11.720;2022-08-19T09:24:04;18.20;99.90
7648;DHT22;3866;48.020;11.720;2022-08-19T09:26:33;18.30;99.90
7648;DHT22;3866;48.020;11.720;2022-08-19T09:29:00;18.30;99.90
7648;DHT22;3866;48.020;11.720;2022-08-19T09:31:31;18.40;99.90
7648;DHT22;3866;48.020;11.720;2022-08-19T09:33:58;18.40;99.90
7648;DHT22;3866;48.020;11.720;2022-08-19T09:36:28;18.60;99.90
7648;DHT22;3866;48.020;11.720;2022-08-19T09:38:58;18.80;99.90
7648;DHT22;3866;48.020;11.720;2022-08-19T09:41:27;18.80;99.90
7648;DHT22;3866;48.020;11.720;2022-08-19T09:43:57;19.10;99.90
7648;DHT22;3866;48.020;11.720;2022-08-19T09:46:25;19.10;99.90
7648;DHT22;3866;48.020;11.720;2022-08-19T09:48:53;19.10;99.90
7648;DHT22;3866;48.020;11.720;2022-08-19T09:51:22;19.10;99.90
7648;DHT22;3866;48.020;11.720;2022-08-19T09:53:50;19.00;99.90
7648;DHT22;3866;48.020;11.720;2022-08-19T09:56:20;19.40;99.90
7648;DHT22;3866;48.020;11.720;2022-08-19T09:58:48;19.50;99.90
7648;DHT22;3866;48.020;11.720;2022-08-19T10:01:19;19.40;99.90
7648;DHT22;3866;48.020;11.720;2022-08-19T10:03:48;19.50;99.90
7648;DHT22;3866;48.020;11.720;2022-08-19T10:06:16;19.40;99.90
7648;DHT22;3866;48.020;11.720;2022-08-19T10:08:43;19.50;99.90
7648;DHT22;3866;48.020;11.720;2022-08-19T10:11:10;19.50;99.90
7648;DHT22;3866;48.020;11.720;2022-08-19T10:13:38;19.40;99.90
7648;DHT22;3866;48.020;11.720;2022-08-19T10:16:07;19.30;99.90
7648;DHT22;3866;48.020;11.720;2022-08-19T10:18:36;19.30;99.90
7648;DHT22;3866;48.020;11.720;2022-08-19T10:21:07;19.30;99.90
7648;DHT22;3866;48.020;11.720;2022-08-19T10:23:35;19.40;99.90
7648;DHT22;3866;48.020;11.720;2022-08-19T10:26:03;19.40;99.90
7648;DHT22;3866;48.020;11.720;2022-08-19T10:28:32;19.40;99.90
7648;DHT22;3866;48.020;11.720;2022-08-19T10:31:03;19.30;99.90
7648;DHT22;3866;48.020;11.720;2022-08-19T10:33:32;19.40;99.90
7648;DHT22;3866;48.020;11.720;2022-08-19T10:36:02;19.40;99.90
7648;DHT22;3866;48.020;11.720;2022-08-19T10:38:30;19.70;99.90
7648;DHT22;3866;48.020;11.720;2022-08-19T10:40:57;19.60;99.90
7648;DHT22;3866;48.020;11.720;2022-08-19T10:43:24;19.60;99.90
7648;DHT22;3866;48.020;11.720;2022-08-19T10:45:55;19.60;99.90
7648;DHT22;3866;48.020;11.720;2022-08-19T10:48:24;19.50;99.90
7648;DHT22;3866;48.020;11.720;2022-08-19T10:50:51;19.60;99.90
7648;DHT22;3866;48.020;11.720;2022-08-19T10:53:37;19.60;99.90
7648;DHT22;3866;48.020;11.720;2022-08-19T10:56:04;19.70;99.90
7648;DHT22;3866;48.020;11.720;2022-08-19T10:58:48;19.70;99.90
7648;DHT22;3866;48.020;11.720;2022-08-19T11:01:15;19.30;99.90
7648;DHT22;3866;48.020;11.720;2022-08-19T11:03:42;19.30;99.90
7648;DHT22;3866;48.020;11.720;2022-08-19T11:06:11;19.40;99.90
7648;DHT22;3866;48.020;11.720;2022-08-19T11:08:39;19.40;99.90
7648;DHT22;3866;48.020;11.720;2022-08-19T11:11:08;19.60;99.90
7648;DHT22;3866;48.020;11.720;2022-08-19T11:13:37;19.70;99.90
7648;DHT22;3866;48.020;11.720;2022-08-19T11:16:08;19.80;99.90
7648;DHT22;3866;48.020;11.720;2022-08-19T11:18:36;20.00;99.90
7648;DHT22;3866;48.020;11.720;2022-08-19T11:21:09;20.20;99.90
7648;DHT22;3866;48.020;11.720;2022-08-19T11:23:37;20.50;99.90
7648;DHT22;3866;48.020;11.720;2022-08-19T11:26:05;20.50;99.90
7648;DHT22;3866;48.020;11.720;2022-08-19T11:28:32;20.40;99.90
7648;DHT22;3866;48.020;11.720;2022-08-19T11:30:59;20.70;99.90
7648;DHT22;3866;48.020;11.720;2022-08-19T11:33:26;20.80;99.90
7648;DHT22;3866;48.020;11.720;2022-08-19T11:35:53;21.10;99.90
7648;DHT22;3866;48.020;11.720;2022-08-19T11:38:20;21.20;99.90
7648;DHT22;3866;48.020;11.720;2022-08-19T11:40:57;21.20;99.90
7648;DHT22;3866;48.020;11.720;2022-08-19T11:43:26;21.20;99.90
7648;DHT22;3866;48.020;11.720;2022-08-19T11:45:54;21.30;99.90
7648;DHT22;3866;48.020;11.720;2022-08-19T11:48:22;21.60;99.90
7648;DHT22;3866;48.020;11.720;2022-08-19T11:50:49;21.60;99.90
7648;DHT22;3866;48.020;11.720;2022-08-19T11:53:16;21.50;99.90
7648;DHT22;3866;48.020;11.720;2022-08-19T11:55:44;21.60;99.90
7648;DHT22;3866;48.020;11.720;2022-08-19T11:58:12;21.60;99.90
7648;DHT22;3866;48.020;11.720;2022-08-19T12:00:41;21.80;99.90
7648;DHT22;3866;48.020;11.720;2022-08-19T12:03:10;21.80;99.90
7648;DHT22;3866;48.020;11.720;2022-08-19T12:05:38;21.80;99.90
7648;DHT22;3866;48.020;11.720;2022-08-19T12:08:06;21.90;99.90
7648;DHT22;3866;48.020;11.720;2022-08-19T12:10:33;21.90;99.90
7648;DHT22;3866;48.020;11.720;2022-08-19T12:13:01;22.00;99.90
7648;DHT22;3866;48.020;11.720;2022-08-19T12:15:28;22.10;99.90
7648;DHT22;3866;48.020;11.720;2022-08-19T12:17:57;21.90;99.90
7648;DHT22;3866;48.020;11.720;2022-08-19T12:20:24;21.80;99.90
7648;DHT22;3866;48.020;11.720;2022-08-19T12:22:51;21.50;99.90
7648;DHT22;3866;48.020;11.720;2022-08-19T12:25:18;21.30;99.90
7648;DHT22;3866;48.020;11.720;2022-08-19T12:27:46;21.60;99.90
7648;DHT22;3866;48.020;11.720;2022-08-19T12:30:14;21.90;99.90
7648;DHT22;3866;48.020;11.720;2022-08-19T12:32:41;22.20;99.90
7648;DHT22;3866;48.020;11.720;2022-08-19T12:35:09;22.80;99.90
7648;DHT22;3866;48.020;11.720;2022-08-19T12:37:37;22.40;99.90
7648;DHT22;3866;48.020;11.720;2022-08-19T12:40:05;22.10;99.90
7648;DHT22;3866;48.020;11.720;2022-08-19T12:42:32;21.80;99.90
7648;DHT22;3866;48.020;11.720;2022-08-19T12:45:00;21.50;99.90
7648;DHT22;3866;48.020;11.720;2022-08-19T12:47:27;21.20;99.90
7648;DHT22;3866;48.020;11.720;2022-08-19T12:49:54;21.20;99.90
7648;DHT22;3866;48.020;11.720;2022-08-19T12:52:25;21.90;99.90
7648;DHT22;3866;48.020;11.720;2022-08-19T12:54:54;22.20;99.90
7648;DHT22;3866;48.020;11.720;2022-08-19T12:57:23;22.00;99.90
7648;DHT22;3866;48.020;11.720;2022-08-19T12:59:52;21.50;99.90
7648;DHT22;3866;48.020;11.720;2022-08-19T13:02:20;21.60;99.90
7648;DHT22;3866;48.020;11.720;2022-08-19T13:04:47;21.50;99.90
7648;DHT22;3866;48.020;11.720;2022-08-19T13:07:14;21.90;99.90
7648;DHT22;3866;48.020;11.720;2022-08-19T13:09:43;22.10;99.90
7648;DHT22;3866;48.020;11.720;2022-08-19T13:12:10;22.70;99.90
7648;DHT22;3866;48.020;11.720;2022-08-19T13:14:38;23.10;99.90
7648;DHT22;3866;48.020;11.720;2022-08-19T13:17:05;23.30;99.90
7648;DHT22;3866;48.020;11.720;2022-08-19T13:19:32;23.00;99.90
7648;DHT22;3866;48.020;11.720;2022-08-19T13:21:59;23.30;99.90
7648;DHT22;3866;48.020;11.720;2022-08-19T13:24:26;24.00;99.90
7648;DHT22;3866;48.020;11.720;2022-08-19T13:26:54;23.00;99.90
7648;DHT22;3866;48.020;11.720;2022-08-19T13:29:21;22.50;99.90
7648;DHT22;3866;48.020;11.720;2022-08-19T13:32:05;22.40;99.90
7648;DHT22;3866;48.020;11.720;2022-08-19T13:34:50;22.90;99.90
7648;DHT22;3866;48.020;11.720;2022-08-19T13:37:17;23.40;99.90
7648;DHT22;3866;48.020;11.720;2022-08-19T13:40:05;23.50;99.90
7648;DHT22;3866;48.020;11.720;2022-08-19T13:42:34;23.20;99.90
7648;DHT22;3866;48.020;11.720;2022-08-19T13:45:01;23.30;99.90
7648;DHT22;3866;48.020;11.720;2022-08-19T13:47:27;23.40;99.90
7648;DHT22;3866;48.020;11.720;2022-08-19T13:49:54;23.30;99.90
7648;DHT22;3866;48.020;11.720;2022-08-19T13:52:21;23.60;99.90
7648;DHT22;3866;48.020;11.720;2022-08-19T13:54:48;23.40;99.90
7648;DHT22;3866;48.020;11.720;2022-08-19T13:57:16;22.60;99.90
7648;DHT22;3866;48.020;11.720;2022-08-19T13:59:44;22.20;99.90
7648;DHT22;3866;48.020;11.720;2022-08-19T14:02:11;22.40;99.90
7648;DHT22;3866;48.020;11.720;2022-08-19T14:04:38;22.60;99.90
7648;DHT22;3866;48.020;11.720;2022-08-19T14:07:05;22.70;99.90
7648;DHT22;3866;48.020;11.720;2022-08-19T14:09:32;23.00;99.90
7648;DHT22;3866;48.020;11.720;2022-08-19T14:11:58;23.60;99.90
7648;DHT22;3866;48.020;11.720;2022-08-19T14:14:25;23.70;99.90
7648;DHT22;3866;48.020;11.720;2022-08-19T14:16:54;22.90;99.90
7648;DHT22;3866;48.020;11.720;2022-08-19T14:19:21;22.80;99.90
7648;DHT22;3866;48.020;11.720;2022-08-19T14:21:48;22.80;99.90
7648;DHT22;3866;48.020;11.720;2022-08-19T14:24:15;22.30;99.90
7648;DHT22;3866;48.020;11.720;2022-08-19T14:26:41;22.60;99.90
7648;DHT22;3866;48.020;11.720;2022-08-19T14:29:08;22.60;99.90
7648;DHT22;3866;48.020;11.720;2022-08-19T14:31:35;22.50;99.90
7648;DHT22;3866;48.020;11.720;2022-08-19T14:34:03;22.40;99.90
7648;DHT22;3866;48.020;11.720;2022-08-19T14:36:30;22.30;99.90
7648;DHT22;3866;48.020;11.720;2022-08-19T14:38:59;22.80;99.90
7648;DHT22;3866;48.020;11.720;2022-08-19T14:41:27;22.50;99.90
7648;DHT22;3866;48.020;11.720;2022-08-19T14:43:56;22.30;99.90
7648;DHT22;3866;48.020;11.720;2022-08-19T14:46:25;22.60;99.90
7648;DHT22;3866;48.020;11.720;2022-08-19T14:48:52;22.30;99.90
7648;DHT22;3866;48.020;11.720;2022-08-19T14:51:24;22.20;99.90
7648;DHT22;3866;48.020;11.720;2022-08-19T14:53:52;22.70;99.90
7648;DHT22;3866;48.020;11.720;2022-08-19T14:56:22;22.40;99.90
7648;DHT22;3866;48.020;11.720;2022-08-19T14:58:49;22.30;99.90
7648;DHT22;3866;48.020;11.720;2022-08-19T15:01:18;22.10;99.90
7648;DHT22;3866;48.020;11.720;2022-08-19T15:03:46;22.00;99.90
7648;DHT22;3866;48.020;11.720;2022-08-19T15:06:13;21.90;99.90
7648;DHT22;3866;48.020;11.720;2022-08-19T15:08:42;21.90;99.90
7648;DHT22;3866;48.020;11.720;2022-08-19T15:11:11;22.20;99.90
7648;DHT22;3866;48.020;11.720;2022-08-19T15:13:40;22.80;99.90
7648;DHT22;3866;48.020;11.720;2022-08-19T15:16:07;23.00;99.90
7648;DHT22;3866;48.020;11.720;2022-08-19T15:18:34;22.80;99.90
7648;DHT22;3866;48.020;11.720;2022-08-19T15:21:02;22.00;99.90
7648;DHT22;3866;48.020;11.720;2022-08-19T15:23:30;21.50;99.90
7648;DHT22;3866;48.020;11.720;2022-08-19T15:25:58;21.30;99.90
7648;DHT22;3866;48.020;11.720;2022-08-19T15:28:26;21.50;99.90
7648;DHT22;3866;48.020;11.720;2022-08-19T15:30:53;21.60;99.90
7648;DHT22;3866;48.020;11.720;2022-08-19T15:33:20;22.00;99.90
7648;DHT22;3866;48.020;11.720;2022-08-19T15:35:47;22.00;99.90
7648;DHT22;3866;48.020;11.720;2022-08-19T15:38:16;21.60;99.90
7648;DHT22;3866;48.020;11.720;2022-08-19T15:40:44;21.80;99.90
7648;DHT22;3866;48.020;11.720;2022-08-19T15:43:14;21.50;99.90
7648;DHT22;3866;48.020;11.720;2022-08-19T15:45:41;21.20;99.90
7648;DHT22;3866;48.020;11.720;2022-08-19T15:48:08;21.10;99.90
7648;DHT22;3866;48.020;11.720;2022-08-19T15:50:35;21.20;99.90
7648;DHT22;3866;48.020;11.720;2022-08-19T15:53:06;20.80;99.90
7648;DHT22;3866;48.020;11.720;2022-08-19T15:55:35;20.80;99.90